createdAt,value
2023-02-27T00:00:00.573Z,1.25
2023-02-27T00:02:27.414Z,1.17
2023-02-27T00:04:54.699Z,1.20
2023-02-27T00:07:25.964Z,0.82
2023-02-27T00:09:53.326Z,1.08
2023-02-27T00:12:20.284Z,1.30
2023-02-27T00:14:47.244Z,1.38
2023-02-27T00:17:14.128Z,1.00
2023-02-27T00:19:40.978Z,0.95
2023-02-27T00:22:07.810Z,1.30
2023-02-27T00:24:34.683Z,1.02
2023-02-27T00:27:01.517Z,1.10
2023-02-27T00:29:28.474Z,0.90
2023-02-27T00:31:55.424Z,1.17
2023-02-27T00:34:22.394Z,0.95
2023-02-27T00:36:49.282Z,1.33
2023-02-27T00:39:16.102Z,1.08
2023-02-27T00:41:43.007Z,1.45
2023-02-27T00:44:09.828Z,1.27
2023-02-27T00:46:36.988Z,0.85
2023-02-27T00:49:03.986Z,1.27
2023-02-27T00:51:30.832Z,1.40
2023-02-27T00:53:57.876Z,1.20
2023-02-27T00:56:24.936Z,1.10
2023-02-27T00:58:51.770Z,1.20
2023-02-27T01:01:22.091Z,1.00
2023-02-27T01:03:49.000Z,1.20
2023-02-27T01:06:17.020Z,1.40
2023-02-27T01:08:43.858Z,1.30
2023-02-27T01:11:10.765Z,1.20
2023-02-27T01:13:40.739Z,1.20
2023-02-27T01:16:08.665Z,1.20
2023-02-27T01:18:35.547Z,1.50
2023-02-27T01:21:02.567Z,1.50
2023-02-27T01:23:29.533Z,1.33
2023-02-27T01:25:56.380Z,1.58
2023-02-27T01:28:23.234Z,1.48
2023-02-27T01:30:50.096Z,1.10
2023-02-27T01:33:16.988Z,1.20
2023-02-27T01:35:43.782Z,1.48
2023-02-27T01:38:12.243Z,1.45
2023-02-27T01:40:41.202Z,1.25
2023-02-27T01:43:13.157Z,0.95
2023-02-27T01:45:40.995Z,1.20
2023-02-27T01:48:20.257Z,1.48
2023-02-27T01:50:50.382Z,1.55
2023-02-27T01:53:17.752Z,1.30
2023-02-27T01:55:45.604Z,1.20
2023-02-27T01:58:13.780Z,1.20
2023-02-27T02:00:40.786Z,1.30
2023-02-27T02:03:20.565Z,1.40
2023-02-27T02:05:48.055Z,1.45
2023-02-27T02:08:17.481Z,1.10
2023-02-27T02:10:44.664Z,1.60
2023-02-27T02:13:11.445Z,1.23
2023-02-27T02:15:41.342Z,1.13
2023-02-27T02:18:25.046Z,1.50
2023-02-27T02:21:32.785Z,1.27
2023-02-27T02:24:11.859Z,1.23
2023-02-27T02:26:53.942Z,1.30
2023-02-27T02:29:58.479Z,1.15
2023-02-27T02:32:59.867Z,1.25
2023-02-27T02:36:07.434Z,1.58
2023-02-27T02:38:44.153Z,1.40
2023-02-27T02:41:26.149Z,1.10
2023-02-27T02:43:57.442Z,1.05
2023-02-27T02:46:36.463Z,1.60
2023-02-27T02:49:15.507Z,1.20
2023-02-27T02:51:51.586Z,1.30
2023-02-27T02:54:26.159Z,1.30
2023-02-27T02:57:21.191Z,1.30
2023-02-27T02:59:57.994Z,1.33
2023-02-27T03:02:30.801Z,2.00
2023-02-27T03:05:03.375Z,1.10
2023-02-27T03:07:32.909Z,1.55
2023-02-27T03:10:07.685Z,1.27
2023-02-27T03:12:35.770Z,1.70
2023-02-27T03:15:31.972Z,1.73
2023-02-27T03:18:21.144Z,1.33
2023-02-27T03:20:53.086Z,1.40
2023-02-27T03:23:26.165Z,1.35
2023-02-27T03:25:53.030Z,1.52
2023-02-27T03:28:23.654Z,1.40
2023-02-27T03:30:56.342Z,1.50
2023-02-27T03:33:43.340Z,1.35
2023-02-27T03:36:32.853Z,1.20
2023-02-27T03:39:18.695Z,1.52
2023-02-27T03:41:51.617Z,1.25
2023-02-27T03:44:35.571Z,1.30
2023-02-27T03:47:02.608Z,1.33
2023-02-27T03:49:29.519Z,1.40
2023-02-27T03:51:56.355Z,1.48
2023-02-27T03:54:30.393Z,1.50
2023-02-27T03:57:07.659Z,1.08
2023-02-27T03:59:34.675Z,2.60
2023-02-27T04:02:02.643Z,1.80
2023-02-27T04:04:33.723Z,1.73
2023-02-27T04:07:57.416Z,1.40
2023-02-27T04:10:50.457Z,1.13
2023-02-27T04:13:34.907Z,1.38
2023-02-27T04:16:18.518Z,1.50
2023-02-27T04:19:24.397Z,1.50
2023-02-27T04:21:57.226Z,1.67
2023-02-27T04:24:51.508Z,4.50
2023-02-27T04:27:29.285Z,1.75
2023-02-27T04:30:01.393Z,1.83
2023-02-27T04:32:35.032Z,1.52
2023-02-27T04:35:40.468Z,1.80
2023-02-27T04:38:19.576Z,2.00
2023-02-27T04:41:13.665Z,1.77
2023-02-27T04:43:41.375Z,1.80
2023-02-27T04:46:10.127Z,1.55
2023-02-27T04:48:43.843Z,1.60
2023-02-27T04:51:13.961Z,1.70
2023-02-27T04:53:46.802Z,1.77
2023-02-27T04:56:19.327Z,1.70
2023-02-27T04:58:51.994Z,1.95
2023-02-27T05:01:28.619Z,1.73
2023-02-27T05:03:55.690Z,1.67
2023-02-27T05:06:25.216Z,1.50
2023-02-27T05:09:19.960Z,1.88
2023-02-27T05:12:10.582Z,1.70
2023-02-27T05:14:47.226Z,1.75
2023-02-27T05:17:38.283Z,2.17
2023-02-27T05:20:07.268Z,1.95
2023-02-27T05:22:47.053Z,1.67
2023-02-27T05:25:19.925Z,1.90
2023-02-27T05:28:30.330Z,2.00
2023-02-27T05:31:03.695Z,1.75
2023-02-27T05:33:40.306Z,1.98
2023-02-27T05:36:43.534Z,1.75
2023-02-27T05:39:10.672Z,1.65
2023-02-27T05:41:46.865Z,1.50
2023-02-27T05:44:19.302Z,1.80
2023-02-27T05:47:06.027Z,1.67
2023-02-27T05:49:37.563Z,1.70
2023-02-27T05:52:08.599Z,1.75
2023-02-27T05:54:43.951Z,1.90
2023-02-27T05:57:14.574Z,1.77
2023-02-27T05:59:58.959Z,1.48
2023-02-27T06:02:25.850Z,1.92
2023-02-27T06:04:52.741Z,1.90
2023-02-27T06:07:21.478Z,1.85
2023-02-27T06:09:48.304Z,1.75
2023-02-27T06:12:15.274Z,1.52
2023-02-27T06:14:42.149Z,1.52
2023-02-27T06:17:09.056Z,1.88
2023-02-27T06:19:35.916Z,1.30
2023-02-27T06:22:02.889Z,1.88
2023-02-27T06:24:29.898Z,2.20
2023-02-27T06:26:56.755Z,1.65
2023-02-27T06:29:23.727Z,1.75
2023-02-27T06:31:50.651Z,1.75
2023-02-27T06:34:17.613Z,2.55
2023-02-27T06:36:44.554Z,1.70
2023-02-27T06:39:12.007Z,1.60
2023-02-27T06:41:39.185Z,2.25
2023-02-27T06:44:06.083Z,3.08
2023-02-27T06:46:32.970Z,3.92
2023-02-27T06:48:59.858Z,3.67
2023-02-27T06:51:26.870Z,3.97
2023-02-27T06:53:53.694Z,3.60
2023-02-27T06:56:20.617Z,3.85
2023-02-27T06:58:47.538Z,3.03
2023-02-27T07:01:14.681Z,2.90
2023-02-27T07:03:41.615Z,3.03
2023-02-27T07:06:08.504Z,2.63
2023-02-27T07:08:36.112Z,2.58
2023-02-27T07:11:03.012Z,2.25
2023-02-27T07:13:30.003Z,2.42
2023-02-27T07:15:56.984Z,3.58
2023-02-27T07:18:25.242Z,3.80
2023-02-27T07:20:52.432Z,2.67
2023-02-27T07:23:19.423Z,2.50
2023-02-27T07:25:47.625Z,3.28
2023-02-27T07:28:14.773Z,3.40
2023-02-27T07:30:41.686Z,3.35
2023-02-27T07:33:08.755Z,3.13
2023-02-27T07:35:35.579Z,4.53
2023-02-27T07:38:02.680Z,3.40
2023-02-27T07:40:29.655Z,3.17
2023-02-27T07:42:56.580Z,2.50
2023-02-27T07:45:23.475Z,4.10
2023-02-27T07:47:50.445Z,3.97
2023-02-27T07:50:17.448Z,3.45
2023-02-27T07:52:44.421Z,7.15
2023-02-27T07:55:11.642Z,4.20
2023-02-27T07:57:38.709Z,5.38
2023-02-27T08:00:06.630Z,3.38
2023-02-27T08:02:38.891Z,2.58
2023-02-27T08:05:06.284Z,2.40
2023-02-27T08:07:33.184Z,3.53
2023-02-27T08:10:00.110Z,2.75
2023-02-27T08:12:27.043Z,3.22
2023-02-27T08:14:54.235Z,3.47
2023-02-27T08:17:21.415Z,3.10
2023-02-27T08:19:48.485Z,2.92
2023-02-27T08:23:07.227Z,3.88
2023-02-27T08:25:34.113Z,3.63
2023-02-27T08:28:00.991Z,3.65
2023-02-27T08:30:27.966Z,2.90
2023-02-27T08:32:55.842Z,3.15
2023-02-27T08:35:23.149Z,3.78
2023-02-27T08:37:49.985Z,3.05
2023-02-27T08:40:17.505Z,2.72
2023-02-27T08:42:44.374Z,2.80
2023-02-27T08:45:11.794Z,2.50
2023-02-27T08:47:38.762Z,3.15
2023-02-27T08:54:19.748Z,4.57
2023-02-27T08:56:47.524Z,5.00
2023-02-27T08:59:14.722Z,4.65
2023-02-27T09:01:41.642Z,3.78
2023-02-27T09:04:08.882Z,3.10
2023-02-27T09:06:36.086Z,3.05
2023-02-27T09:09:05.846Z,3.10
2023-02-27T09:11:32.936Z,3.08
2023-02-27T09:13:59.835Z,4.03
2023-02-27T09:16:28.308Z,3.25
2023-02-27T09:18:55.548Z,3.00
2023-02-27T09:21:24.701Z,3.47
2023-02-27T09:23:52.483Z,2.33
2023-02-27T09:26:19.563Z,2.40
2023-02-27T09:28:46.441Z,2.50
2023-02-27T09:31:13.452Z,2.38
2023-02-27T09:33:40.374Z,3.35
2023-02-27T09:36:07.722Z,3.65
2023-02-27T09:38:34.813Z,2.42
2023-02-27T09:41:02.192Z,2.80
2023-02-27T09:43:44.023Z,2.00
2023-02-27T09:46:15.423Z,2.22
2023-02-27T09:48:52.370Z,2.53
2023-02-27T09:51:19.258Z,2.35
2023-02-27T09:53:51.217Z,2.40
2023-02-27T09:56:40.505Z,2.08
2023-02-27T09:59:19.648Z,2.33
2023-02-27T10:01:51.199Z,2.13
2023-02-27T10:04:28.474Z,2.83
2023-02-27T10:07:01.088Z,1.90
2023-02-27T10:10:15.508Z,2.20
2023-02-27T10:15:31.800Z,2.00
2023-02-27T10:18:28.210Z,2.08
2023-02-27T10:21:12.952Z,2.50
2023-02-27T10:23:56.464Z,2.00
2023-02-27T10:26:28.637Z,2.30
2023-02-27T10:28:55.517Z,2.00
2023-02-27T10:31:27.826Z,1.98
2023-02-27T10:33:55.621Z,2.30
2023-02-27T10:36:33.155Z,2.28
2023-02-27T10:39:05.024Z,1.92
2023-02-27T10:41:31.952Z,2.05
2023-02-27T10:44:00.005Z,2.10
2023-02-27T10:46:31.744Z,1.95
2023-02-27T10:49:02.703Z,2.08
2023-02-27T10:51:31.623Z,2.05
2023-02-27T10:54:26.454Z,2.50
2023-02-27T10:57:01.248Z,2.05
2023-02-27T10:59:29.811Z,2.33
2023-02-27T11:02:06.656Z,2.10
2023-02-27T11:04:40.209Z,2.25
2023-02-27T11:07:09.698Z,2.20
2023-02-27T11:09:37.234Z,2.08
2023-02-27T11:12:24.492Z,2.42
2023-02-27T11:14:59.415Z,2.30
2023-02-27T11:17:49.280Z,2.50
2023-02-27T11:20:37.290Z,2.33
2023-02-27T11:23:10.533Z,2.45
2023-02-27T11:25:37.374Z,2.55
2023-02-27T11:28:19.960Z,2.47
2023-02-27T11:30:55.406Z,2.65
2023-02-27T11:33:22.314Z,2.47
2023-02-27T11:35:58.364Z,2.90
2023-02-27T11:38:27.297Z,2.17
2023-02-27T11:40:57.891Z,2.40
2023-02-27T11:43:26.964Z,2.47
2023-02-27T11:46:04.792Z,2.58
2023-02-27T11:48:52.179Z,2.58
2023-02-27T11:51:53.259Z,2.50
2023-02-27T11:54:52.438Z,2.15
2023-02-27T11:57:31.403Z,2.58
2023-02-27T12:00:18.314Z,2.15
2023-02-27T12:02:52.776Z,2.65
2023-02-27T12:05:32.740Z,2.35
2023-02-27T12:08:07.399Z,2.28
2023-02-27T12:10:48.699Z,2.38
2023-02-27T12:13:30.260Z,2.20
2023-02-27T12:16:22.386Z,2.45
2023-02-27T12:18:55.739Z,2.30
2023-02-27T12:23:58.981Z,2.40
2023-02-27T12:26:33.424Z,2.40
2023-02-27T12:29:12.794Z,1.92
2023-02-27T12:31:51.763Z,2.28
2023-02-27T12:34:26.073Z,2.78
2023-02-27T12:36:53.627Z,2.45
2023-02-27T12:39:22.059Z,2.22
2023-02-27T12:42:15.194Z,2.33
2023-02-27T12:45:00.895Z,2.72
2023-02-27T12:48:24.058Z,2.83
2023-02-27T12:50:54.184Z,2.50
2023-02-27T12:53:45.248Z,2.60
2023-02-27T12:56:17.414Z,2.45
2023-02-27T12:58:54.392Z,2.90
2023-02-27T13:01:49.746Z,2.95
2023-02-27T13:04:33.355Z,2.95
2023-02-27T13:07:02.413Z,2.40
2023-02-27T13:09:52.161Z,2.75
2023-02-27T13:12:29.844Z,2.45
2023-02-27T13:14:58.596Z,2.65
2023-02-27T13:17:35.101Z,2.60
2023-02-27T13:20:11.763Z,2.78
2023-02-27T13:23:13.234Z,2.60
2023-02-27T13:25:40.344Z,2.70
2023-02-27T13:28:08.765Z,2.63
2023-02-27T13:30:38.401Z,2.83
2023-02-27T13:33:17.066Z,3.05
2023-02-27T13:36:07.743Z,2.70
2023-02-27T13:38:45.328Z,3.10
2023-02-27T13:41:21.548Z,2.92
2023-02-27T13:43:52.548Z,2.90
2023-02-27T13:46:32.182Z,2.47
2023-02-27T13:49:05.230Z,2.72
2023-02-27T13:51:35.351Z,2.53
2023-02-27T13:54:14.865Z,2.10
2023-02-27T13:56:57.609Z,3.33
2023-02-27T13:59:40.231Z,2.67
2023-02-27T14:02:10.036Z,2.90
2023-02-27T14:04:48.062Z,2.72
2023-02-27T14:07:21.284Z,2.67
2023-02-27T14:09:50.424Z,2.42
2023-02-27T14:12:30.906Z,3.03
2023-02-27T14:15:07.810Z,2.83
2023-02-27T14:17:37.818Z,3.00
2023-02-27T14:20:16.914Z,2.85
2023-02-27T14:23:06.775Z,22.30
2023-02-27T14:25:39.400Z,14.63
2023-02-27T14:28:32.722Z,5.35
2023-02-27T14:31:01.876Z,5.78
2023-02-27T14:33:43.740Z,3.10
2023-02-27T14:36:16.845Z,3.05
2023-02-27T14:38:43.713Z,2.60
2023-02-27T14:41:17.320Z,3.15
2023-02-27T14:43:55.010Z,2.20
2023-02-27T14:46:25.018Z,3.10
2023-02-27T14:48:56.594Z,2.70
2023-02-27T14:51:24.040Z,2.50
2023-02-27T14:54:07.361Z,2.90
2023-02-27T14:56:34.530Z,4.10
2023-02-27T14:59:04.653Z,2.95
2023-02-27T15:01:35.255Z,3.03
2023-02-27T15:04:02.258Z,2.95
2023-02-27T15:06:37.202Z,2.88
2023-02-27T15:09:04.010Z,2.42
2023-02-27T15:11:31.060Z,2.95
2023-02-27T15:14:02.585Z,3.00
2023-02-27T15:16:30.041Z,3.03
2023-02-27T15:18:59.590Z,3.00
2023-02-27T15:21:27.982Z,2.35
2023-02-27T15:23:56.110Z,2.92
2023-02-27T15:26:22.968Z,2.95
2023-02-27T15:28:50.517Z,2.80
2023-02-27T15:31:22.611Z,3.05
2023-02-27T15:33:50.344Z,3.10
2023-02-27T15:36:22.987Z,3.30
2023-02-27T15:39:16.105Z,3.03
2023-02-27T15:41:48.622Z,2.75
2023-02-27T15:44:16.843Z,2.90
2023-02-27T15:46:44.254Z,3.00
2023-02-27T15:49:16.037Z,4.05
2023-02-27T15:51:43.136Z,2.65
2023-02-27T15:54:10.048Z,3.08
2023-02-27T15:56:37.488Z,3.08
2023-02-27T15:59:04.350Z,3.15
2023-02-27T16:01:32.496Z,3.10
2023-02-27T16:04:01.065Z,2.70
2023-02-27T16:06:35.994Z,3.03
2023-02-27T16:09:07.904Z,4.05
2023-02-27T16:11:35.744Z,2.97
2023-02-27T16:14:02.694Z,2.80
2023-02-27T16:16:36.086Z,2.85
2023-02-27T16:19:26.972Z,3.28
2023-02-27T16:22:22.258Z,2.50
2023-02-27T16:24:49.686Z,3.10
2023-02-27T16:27:18.408Z,3.05
2023-02-27T16:29:45.430Z,2.50
2023-02-27T16:32:26.526Z,3.35
2023-02-27T16:35:01.437Z,3.22
2023-02-27T16:37:39.554Z,4.43
2023-02-27T16:40:17.199Z,3.67
2023-02-27T16:42:44.585Z,3.00
2023-02-27T16:45:15.606Z,3.00
2023-02-27T16:47:42.490Z,5.75
2023-02-27T16:50:34.548Z,6.47
2023-02-27T16:53:01.397Z,5.68
2023-02-27T16:55:28.385Z,6.43
2023-02-27T16:57:56.007Z,2.97
2023-02-27T17:00:23.010Z,3.35
2023-02-27T17:02:50.065Z,2.88
2023-02-27T17:05:17.656Z,3.10
2023-02-27T17:07:44.786Z,2.53
2023-02-27T17:10:15.198Z,2.58
2023-02-27T17:12:43.986Z,2.92
2023-02-27T17:15:11.072Z,2.88
2023-02-27T17:17:37.894Z,2.65
2023-02-27T17:20:07.331Z,2.65
2023-02-27T17:22:38.214Z,2.70
2023-02-27T17:25:05.447Z,2.83
2023-02-27T17:27:32.288Z,2.60
2023-02-27T17:29:59.218Z,2.47
2023-02-27T17:32:26.095Z,2.72
2023-02-27T17:34:54.156Z,2.75
2023-02-27T17:37:21.295Z,3.30
2023-02-27T17:39:48.113Z,2.92
2023-02-27T17:42:18.413Z,3.13
2023-02-27T17:44:48.555Z,3.13
2023-02-27T17:47:15.522Z,2.70
2023-02-27T17:49:42.559Z,3.08
2023-02-27T17:52:09.515Z,2.60
2023-02-27T17:54:36.360Z,2.60
2023-02-27T17:57:04.788Z,2.35
2023-02-27T17:59:31.753Z,2.28
2023-02-27T18:01:59.288Z,2.70
2023-02-27T18:04:28.853Z,2.45
2023-02-27T18:06:55.712Z,2.80
2023-02-27T18:09:22.527Z,2.42
2023-02-27T18:11:49.778Z,2.20
2023-02-27T18:14:16.632Z,1.98
2023-02-27T18:16:43.859Z,2.33
2023-02-27T18:19:10.932Z,2.45
2023-02-27T18:21:37.987Z,2.47
2023-02-27T18:24:05.166Z,2.70
2023-02-27T18:26:32.908Z,2.30
2023-02-27T18:29:01.519Z,2.92
2023-02-27T18:31:30.864Z,2.95
2023-02-27T18:33:57.740Z,2.38
2023-02-27T18:36:24.857Z,2.28
2023-02-27T18:38:51.880Z,2.60
2023-02-27T18:41:18.772Z,2.28
2023-02-27T18:43:45.540Z,2.55
2023-02-27T18:46:13.009Z,2.35
2023-02-27T18:48:40.560Z,2.45
2023-02-27T18:51:12.216Z,2.15
2023-02-27T18:53:39.762Z,1.95
2023-02-27T18:56:09.276Z,2.20
2023-02-27T18:58:36.459Z,2.65
2023-02-27T19:01:07.344Z,2.55
2023-02-27T19:03:35.338Z,2.30
2023-02-27T19:06:02.237Z,2.42
2023-02-27T19:08:29.269Z,2.28
2023-02-27T19:10:56.790Z,2.75
2023-02-27T19:13:24.166Z,2.58
2023-02-27T19:15:53.597Z,2.35
2023-02-27T19:18:20.463Z,2.65
2023-02-27T19:20:47.242Z,2.45
2023-02-27T19:23:14.229Z,2.90
2023-02-27T19:25:43.664Z,2.83
2023-02-27T19:28:11.108Z,2.30
2023-02-27T19:30:39.332Z,2.83
2023-02-27T19:33:06.139Z,2.70
2023-02-27T19:35:33.023Z,2.53
2023-02-27T19:37:59.976Z,2.60
2023-02-27T19:40:28.190Z,2.47
2023-02-27T19:42:55.126Z,3.17
2023-02-27T19:45:22.109Z,3.35
2023-02-27T19:47:48.925Z,2.83
2023-02-27T19:50:16.274Z,2.72
2023-02-27T19:52:43.120Z,2.40
2023-02-27T19:55:10.397Z,2.58
2023-02-27T19:57:37.355Z,3.10
2023-02-27T20:00:06.585Z,7.38
2023-02-27T20:02:42.286Z,4.30
2023-02-27T20:05:12.055Z,2.22
2023-02-27T20:07:40.432Z,1.88
2023-02-27T20:10:10.787Z,2.08
2023-02-27T20:12:37.693Z,2.90
2023-02-27T20:15:09.830Z,3.17
2023-02-27T20:17:36.921Z,3.20
2023-02-27T20:20:04.968Z,2.83
2023-02-27T20:22:32.907Z,3.30
2023-02-27T20:25:00.094Z,2.72
2023-02-27T20:27:27.201Z,4.32
2023-02-27T20:29:55.717Z,2.92
2023-02-27T20:32:23.478Z,3.20
2023-02-27T20:34:50.832Z,3.25
2023-02-27T20:37:17.672Z,2.88
2023-02-27T20:39:45.171Z,2.50
2023-02-27T20:42:14.097Z,3.28
2023-02-27T20:44:41.737Z,2.60
2023-02-27T20:47:09.073Z,2.83
2023-02-27T20:49:36.505Z,2.72
2023-02-27T20:52:03.730Z,3.33
2023-02-27T20:54:30.648Z,2.70
2023-02-27T20:56:57.573Z,2.83
2023-02-27T20:59:25.514Z,3.03
2023-02-27T21:01:52.756Z,2.58
2023-02-27T21:04:43.069Z,3.00
2023-02-27T21:07:11.502Z,2.92
2023-02-27T21:09:41.028Z,2.65
2023-02-27T21:12:08.298Z,3.00
2023-02-27T21:14:35.583Z,2.75
2023-02-27T21:17:02.949Z,2.95
2023-02-27T21:19:29.908Z,3.30
2023-02-27T21:21:56.788Z,3.45
2023-02-27T21:24:23.652Z,2.83
2023-02-27T21:26:50.549Z,2.42
2023-02-27T21:29:19.292Z,2.50
2023-02-27T21:31:48.878Z,2.83
2023-02-27T21:34:19.208Z,3.28
2023-02-27T21:36:46.510Z,3.10
2023-02-27T21:39:15.367Z,3.00
2023-02-27T21:41:42.499Z,3.13
2023-02-27T21:44:09.662Z,3.67
2023-02-27T21:46:39.029Z,4.75
2023-02-27T21:49:05.853Z,4.47
2023-02-27T21:51:40.333Z,4.25
2023-02-27T21:54:09.100Z,7.22
2023-02-27T21:56:35.967Z,4.10
2023-02-27T21:59:04.905Z,4.00
2023-02-27T22:01:32.412Z,3.53
2023-02-27T22:03:59.711Z,3.45
2023-02-27T22:06:27.494Z,3.13
2023-02-27T22:08:57.428Z,2.88
2023-02-27T22:11:25.024Z,3.70
2023-02-27T22:13:51.876Z,3.15
2023-02-27T22:16:18.989Z,3.00
2023-02-27T22:18:46.125Z,3.30
2023-02-27T22:21:16.307Z,2.83
2023-02-27T22:23:43.855Z,2.78
2023-02-27T22:26:15.760Z,2.85
2023-02-27T22:28:42.969Z,2.78
2023-02-27T22:31:11.149Z,2.38
2023-02-27T22:33:38.513Z,2.92
2023-02-27T22:36:20.073Z,7.45
2023-02-27T22:38:48.109Z,3.17
2023-02-27T22:41:23.517Z,3.10
2023-02-27T22:43:50.633Z,2.67
2023-02-27T22:46:23.667Z,2.50
2023-02-27T22:48:57.092Z,2.80
2023-02-27T22:51:25.372Z,3.55
2023-02-27T22:53:52.235Z,3.67
2023-02-27T22:56:19.145Z,2.67
2023-02-27T22:58:47.816Z,3.05
2023-02-27T23:01:16.826Z,3.55
2023-02-27T23:03:44.631Z,4.43
2023-02-27T23:06:13.879Z,2.97
2023-02-27T23:08:40.930Z,3.50
2023-02-27T23:11:08.182Z,3.83
2023-02-27T23:13:35.116Z,3.97
2023-02-27T23:16:02.178Z,3.47
2023-02-27T23:18:29.062Z,3.30
2023-02-27T23:20:55.859Z,3.40
2023-02-27T23:23:23.025Z,4.25
2023-02-27T23:25:49.852Z,3.90
2023-02-27T23:28:16.686Z,2.90
2023-02-27T23:30:43.460Z,2.75
2023-02-27T23:33:10.269Z,3.13
2023-02-27T23:35:37.398Z,3.38
2023-02-27T23:38:04.248Z,2.75
2023-02-27T23:40:31.147Z,3.15
2023-02-27T23:42:58.198Z,3.28
2023-02-27T23:45:25.200Z,2.80
2023-02-27T23:47:53.763Z,2.95
2023-02-27T23:50:22.831Z,3.28
2023-02-27T23:52:50.191Z,6.82
2023-02-27T23:55:17.527Z,3.97
2023-02-27T23:57:44.400Z,3.60
